KDET/DET METAR and TAF weather

Enter ICAO airport designator
Station Type Date Time Source
KDET METAR 2018/12/10 23:53 UTC NOAA

KDET 102353Z 21006KT 8SM OVC020 M02/M06 A3018 RMK AO2 SLP228 T10221061 11022 21039 58008


Station Type Date Time Source
KDET Decoded METAR 2018/12/10 23:53 UTC NOAA

DETROIT CITY AIRPORT, MI, United States (KDET) 42-25N 083-01W 190M
Dec 10, 2018 - 06:53 PM EST / 2018.12.10 2353 UTC
Wind: from the SSW (210 degrees) at 7 MPH (6 KT):0
Visibility: 8 mile(s):0
Sky conditions: overcast
Temperature: 28.0 F (-2.2 C)
Windchill: 21 F (-6 C):1
Dew Point: 21.0 F (-6.1 C)
Relative Humidity: 74%
Pressure (altimeter): 30.18 in. Hg (1022 hPa)
Pressure tendency: 0.02 inches (0.8 hPa) lower than three hours ago
ob: KDET 102353Z 21006KT 8SM OVC020 M02/M06 A3018 RMK AO2 SLP228 T10221061 11022 21039 58008
cycle: 0

Station Type Date Time Source
KDET TAF 2018/12/10 21:03 UTC NOAA

TAF
AMD KDET 102100Z 1021/1118 21005KT 6SM HZ OVC018
FM102300 23006KT P6SM BKN022
TEMPO 1023/1102 SCT025
FM110600 23009KT P6SM OVC012


Example: see airport list